Martinsville, IL (62442)

4:16 AM CDT on May 30, 2015 (GMT -0500)
Marshall Golf Course | | Change Station
CLOSE
Current Station
Personal Weather Station
Location: Marshall, IL
Elevation: 601 ft
Nearby Weather Stations

Elev 601 ft 39.41 °N, 87.68 °W | Updated 6 seconds ago

Partly Cloudy
Partly Cloudy
64.5 °F
Feels Like 64.5 °F
N
0.0
Wind Variable Wind from SSE
Gusts 0.0 mph

Today
High -- | Low -- °F
--% Chance of Precip.
Yesterday
High -- | Low -- °F
Precip. -- in
5:27 AM 8:10 PM
Waxing Gibbous, 89% visible
Pressure 29.96 in
Visibility 10.0 miles
Clouds Mostly Cloudy 9000 ft
Overcast 11000 ft
Dew Point 63 °F
Humidity 95%
Rainfall 0.00 in
Snow Depth Not available.
UV 0 out of 12
Pollen 8.50 out of 12
Air Quality Not available.
Flu Activity Sporadic
METAR KMTO 300853Z AUTO 00000KT 10SM BKN090 OVC110 19/18 A2998 RMK AO2 RAB07E16 SLP145 P0000 60000 T01940183 55005 TSNO $

More Conditions Fewer Conditions

Pressure 29.96 in
Visibility 10.0 miles
Clouds Mostly Cloudy 9000 ft
Overcast 11000 ft
Dew Point 63 °F
Humidity 95%
Rainfall 0.00 in
Snow Depth Not available.
UV 0 out of 12
Pollen 8.50 out of 12
Air Quality Not available.
Flu Activity Sporadic
METAR KMTO 300853Z AUTO 00000KT 10SM BKN090 OVC110 19/18 A2998 RMK AO2 RAB07E16 SLP145 P0000 60000 T01940183 55005 TSNO $

More Conditions Fewer Conditions

10-Day Weather Forecast

Almanac

Astronomy

May. 30, 2015 Rise Set
Actual Time
Civil Twilight
Nautical Twilight
Astronomical Twilight
Moon
Length of Visible Light
Length of Day
Tomorrow will be .
, % of the Moon is Illuminated

Today's Extremes

State Highs State Lows

Community

WunderPhotos

Upload Photos

1,825,473 photos uploaded!

WunderBlogs® & News

Nearby

Air Quality

  Air Quality AQ Index Pollutant
Not available.

Snow Depth

Station Depth Elevation

Earthquake Activity

City Distance Mag. Time & Date
Minimum magnitude displayed is 2.5.

Coastal Water Temperatures

Place Temperature

Stations

Nearby Weather Stations

Station Location Temp. Windchill Dew Point Humidity Wind Precip. Elev Updated Type